Terminal Aerodrome Forecast
Issued by NWS

Home | Current Version | Previous Version | Text Only | Print | Product List | Glossary On
Versions: 1 2 3 4 5 6 7 8 9 10 11 12 13 14 15 16 17 18 19
145
FTUS46 KEKA 011740
TAFCEC
TAF
KCEC 011740Z 0118/0218 34011KT P6SM SKC
     FM020000 17007KT P6SM SKC
     FM020300 15003KT P6SM FEW005
     FM020800 12003KT 6SM BR SCT003=

USA.gov is the U.S. government's official web portal to all federal, state and local government web resources and services.